Time;durP1;ratioP1;P1;durP2;ratioP2;P2;SDS_P1;SDS_P2;PMS_P1;PMS_P2;Temp;Humidity;BMP_temperature;BMP_pressure;BME280_temperature;BME280_humidity;BME280_pressure;Samples;Min_cycle;Max_cycle;Signal;HPM_P1;HPM_P2
2021/01/22 00:02:12;;;;;;;0.40;0.40;;;;;;;;;;5068947;28;20044;-64
2021/01/22 00:04:38;;;;;;;2.50;0.60;;;;;;;;;;5068618;28;20025;-64
2021/01/22 00:07:03;;;;;;;1.42;0.63;;;;;;;;;;5068202;28;20631;-64
2021/01/22 00:09:28;;;;;;;1.25;0.63;;;;;;;;;;5069386;28;20020;-64
2021/01/22 00:11:54;;;;;;;3.05;1.10;;;;;;;;;;5068586;28;20028;-64
2021/01/22 00:14:19;;;;;;;12.53;1.00;;;;;;;;;;5068889;28;20384;-64
2021/01/22 00:16:44;;;;;;;1.25;0.63;;;;;;;;;;5068281;28;20356;-64
2021/01/22 00:19:09;;;;;;;1.83;0.70;;;;;;;;;;5068895;28;20028;-64
2021/01/22 00:21:36;;;;;;;1.48;0.60;;;;;;;;;;5067927;28;20117;-64
2021/01/22 00:24:02;;;;;;;3.15;0.85;;;;;;;;;;5068002;28;20101;-64
2021/01/22 00:26:27;;;;;;;4.00;0.75;;;;;;;;;;5068930;28;20047;-64
2021/01/22 00:28:52;;;;;;;5.10;0.63;;;;;;;;;;5067820;28;20570;-64
2021/01/22 00:31:17;;;;;;;4.82;1.17;;;;;;;;;;5068052;28;20303;-64
2021/01/22 00:33:42;;;;;;;6.77;1.30;;;;;;;;;;5068435;28;20027;-64
2021/01/22 00:36:08;;;;;;;6.85;0.90;;;;;;;;;;5068231;28;21149;-64
2021/01/22 00:38:33;;;;;;;3.67;1.17;;;;;;;;;;5066630;28;20086;-64
2021/01/22 00:40:58;;;;;;;3.50;1.20;;;;;;;;;;5068228;28;20086;-64
2021/01/22 00:43:23;;;;;;;6.82;1.25;;;;;;;;;;5068069;28;20771;-64
2021/01/22 00:45:49;;;;;;;14.95;1.33;;;;;;;;;;5068313;28;20370;-64
2021/01/22 00:48:14;;;;;;;2.92;0.98;;;;;;;;;;5068590;28;20024;-64
2021/01/22 00:50:39;;;;;;;12.60;1.65;;;;;;;;;;5069206;28;20029;-64
2021/01/22 00:53:04;;;;;;;6.20;0.97;;;;;;;;;;5070186;28;20028;-64
2021/01/22 00:55:29;;;;;;;7.03;1.57;;;;;;;;;;5069799;28;20342;-64
2021/01/22 00:57:54;;;;;;;13.13;2.45;;;;;;;;;;5070098;28;20267;-64
2021/01/22 01:00:20;;;;;;;5.43;1.73;;;;;;;;;;5068842;28;20111;-65
2021/01/22 01:02:45;;;;;;;5.22;2.40;;;;;;;;;;5067396;28;20669;-64
2021/01/22 01:05:10;;;;;;;6.03;1.10;;;;;;;;;;5066969;28;20022;-64
2021/01/22 01:07:36;;;;;;;5.40;1.08;;;;;;;;;;5069690;28;20808;-63
2021/01/22 01:10:01;;;;;;;7.43;1.58;;;;;;;;;;5070090;28;20384;-65
2021/01/22 01:12:26;;;;;;;3.72;0.90;;;;;;;;;;5069117;28;20705;-63
2021/01/22 01:14:51;;;;;;;6.63;1.10;;;;;;;;;;5070354;28;20082;-65
2021/01/22 01:17:17;;;;;;;9.07;0.93;;;;;;;;;;5069657;28;20111;-64
2021/01/22 01:19:42;;;;;;;3.27;1.03;;;;;;;;;;5070724;28;20074;-65
2021/01/22 01:22:07;;;;;;;2.67;0.77;;;;;;;;;;5067698;28;20263;-64
2021/01/22 01:24:32;;;;;;;2.87;1.03;;;;;;;;;;5067502;28;20262;-64
2021/01/22 01:26:57;;;;;;;6.05;1.85;;;;;;;;;;5067341;28;20255;-64
2021/01/22 01:29:22;;;;;;;3.27;0.70;;;;;;;;;;5077142;22;20035;-64
2021/01/22 01:31:48;;;;;;;5.97;0.83;;;;;;;;;;5086333;28;20270;-64
2021/01/22 01:34:13;;;;;;;0.98;0.68;;;;;;;;;;5086375;28;20326;-64
2021/01/22 01:36:38;;;;;;;2.40;0.65;;;;;;;;;;5086707;28;20035;-64
2021/01/22 01:39:03;;;;;;;3.03;0.90;;;;;;;;;;5087001;28;20070;-65
2021/01/22 01:41:29;;;;;;;5.50;0.70;;;;;;;;;;5087514;28;20091;-64
2021/01/22 01:43:54;;;;;;;2.88;0.80;;;;;;;;;;5087204;28;20090;-65
2021/01/22 01:46:19;;;;;;;1.83;0.73;;;;;;;;;;5086846;28;20379;-65
2021/01/22 01:48:44;;;;;;;2.90;0.90;;;;;;;;;;5086968;28;20365;-64
2021/01/22 01:51:10;;;;;;;3.90;1.10;;;;;;;;;;5087197;28;20028;-64
2021/01/22 01:53:35;;;;;;;2.38;0.52;;;;;;;;;;5087357;28;20020;-64
2021/01/22 01:56:00;;;;;;;4.38;0.55;;;;;;;;;;5086613;28;20476;-64
2021/01/22 01:58:25;;;;;;;1.83;0.93;;;;;;;;;;5085718;28;20019;-64
2021/01/22 02:00:51;;;;;;;4.78;1.20;;;;;;;;;;5087708;28;20023;-64
2021/01/22 02:03:17;;;;;;;12.57;3.53;;;;;;;;;;5086092;28;20051;-64
2021/01/22 02:05:42;;;;;;;2.28;0.40;;;;;;;;;;5085989;28;20286;-64
2021/01/22 02:08:08;;;;;;;7.00;0.93;;;;;;;;;;5085886;28;20028;-64
2021/01/22 02:10:33;;;;;;;6.57;0.95;;;;;;;;;;5088535;28;20837;-65
2021/01/22 02:12:59;;;;;;;3.58;0.63;;;;;;;;;;5090119;28;20034;-65
2021/01/22 02:15:24;;;;;;;9.45;2.22;;;;;;;;;;5090950;28;20100;-65
2021/01/22 02:17:51;;;;;;;5.75;1.50;;;;;;;;;;5086463;28;20103;-66
2021/01/22 02:20:31;;;;;;;7.15;1.77;;;;;;;;;;5088887;28;20039;-66
2021/01/22 02:22:56;;;;;;;7.82;1.45;;;;;;;;;;5084650;28;20027;-65
2021/01/22 02:25:25;;;;;;;6.68;1.98;;;;;;;;;;5085256;28;20028;-66
2021/01/22 02:27:50;;;;;;;4.57;1.70;;;;;;;;;;5085200;28;20016;-65
2021/01/22 02:30:15;;;;;;;4.88;2.00;;;;;;;;;;5085593;28;20096;-65
2021/01/22 02:32:44;;;;;;;6.10;2.40;;;;;;;;;;5086450;28;20030;-66
2021/01/22 02:35:10;;;;;;;7.75;2.40;;;;;;;;;;5085066;28;20027;-66
2021/01/22 02:37:36;;;;;;;12.15;3.13;;;;;;;;;;5086492;28;20038;-65
2021/01/22 02:40:05;;;;;;;9.50;1.98;;;;;;;;;;5085945;28;20020;-66
2021/01/22 02:42:30;;;;;;;5.57;1.60;;;;;;;;;;5086220;28;20024;-65
2021/01/22 02:44:56;;;;;;;8.32;2.00;;;;;;;;;;5085845;28;20023;-66
2021/01/22 02:47:23;;;;;;;7.10;1.77;;;;;;;;;;5086988;28;20413;-66
2021/01/22 02:49:50;;;;;;;9.60;2.47;;;;;;;;;;5084618;28;20372;-65
2021/01/22 02:52:15;;;;;;;2.88;2.00;;;;;;;;;;5087438;28;20020;-65
2021/01/22 02:54:40;;;;;;;2.77;1.90;;;;;;;;;;5087231;28;20058;-65
2021/01/22 02:57:32;;;;;;;5.60;2.60;;;;;;;;;;5087177;28;20293;-66
2021/01/22 03:00:16;;;;;;;3.55;2.58;;;;;;;;;;5086406;28;20040;-65
2021/01/22 03:02:50;;;;;;;3.30;2.70;;;;;;;;;;5086415;28;20020;-66
2021/01/22 03:05:16;;;;;;;3.28;2.67;;;;;;;;;;5085988;28;20020;-63
2021/01/22 03:07:47;;;;;;;1.85;1.60;;;;;;;;;;5085655;28;22057;-65
2021/01/22 03:10:17;;;;;;;2.00;1.45;;;;;;;;;;5084833;28;20024;-65
2021/01/22 03:12:44;;;;;;;1.87;1.33;;;;;;;;;;5086051;28;20647;-64
2021/01/22 03:15:10;;;;;;;2.78;1.70;;;;;;;;;;5086638;28;20270;-65
2021/01/22 03:17:35;;;;;;;1.50;1.27;;;;;;;;;;5084752;28;20520;-64
2021/01/22 03:20:00;;;;;;;3.53;0.90;;;;;;;;;;5083067;28;20059;-65
2021/01/22 03:22:25;;;;;;;2.05;1.10;;;;;;;;;;5083451;28;20020;-65
2021/01/22 03:24:50;;;;;;;0.90;0.70;;;;;;;;;;5082934;28;20020;-65
2021/01/22 03:27:16;;;;;;;1.27;0.85;;;;;;;;;;5083996;28;20753;-65
2021/01/22 03:29:41;;;;;;;0.80;0.70;;;;;;;;;;5082897;28;20479;-65
2021/01/22 03:32:06;;;;;;;3.25;1.30;;;;;;;;;;5081938;28;20097;-64
2021/01/22 03:34:32;;;;;;;3.22;1.30;;;;;;;;;;5084161;28;20028;-64
2021/01/22 03:36:57;;;;;;;2.90;2.03;;;;;;;;;;5085569;28;20515;-64
2021/01/22 03:39:23;;;;;;;1.80;1.65;;;;;;;;;;5086015;28;20024;-64
2021/01/22 03:41:48;;;;;;;3.08;2.25;;;;;;;;;;5086977;28;20027;-64
2021/01/22 03:44:14;;;;;;;7.63;2.63;;;;;;;;;;5086960;28;20020;-64
2021/01/22 03:46:39;;;;;;;2.92;2.30;;;;;;;;;;5088814;28;20015;-64
2021/01/22 03:49:05;;;;;;;3.17;2.50;;;;;;;;;;5089892;28;20111;-64
2021/01/22 03:51:30;;;;;;;3.95;2.40;;;;;;;;;;5087847;28;20028;-64
2021/01/22 03:53:55;;;;;;;4.30;1.95;;;;;;;;;;5089882;28;20107;-63
2021/01/22 03:56:20;;;;;;;2.22;1.80;;;;;;;;;;5088501;28;20026;-65
2021/01/22 03:58:45;;;;;;;4.50;3.00;;;;;;;;;;5087170;28;20070;-64
2021/01/22 04:01:10;;;;;;;3.83;2.88;;;;;;;;;;5086446;28;20062;-65
2021/01/22 04:03:36;;;;;;;6.50;3.60;;;;;;;;;;5086740;28;20024;-65
2021/01/22 04:06:01;;;;;;;11.10;6.20;;;;;;;;;;5086828;28;20297;-64
2021/01/22 04:08:26;;;;;;;14.52;8.88;;;;;;;;;;5087200;28;20464;-64
2021/01/22 04:10:51;;;;;;;14.30;8.70;;;;;;;;;;5087119;28;20028;-64
2021/01/22 04:13:16;;;;;;;10.07;6.03;;;;;;;;;;5087531;28;20270;-64
2021/01/22 04:15:42;;;;;;;12.77;7.27;;;;;;;;;;5070909;28;20299;-64
2021/01/22 04:18:07;;;;;;;9.20;6.27;;;;;;;;;;5088511;28;20262;-64
2021/01/22 04:20:32;;;;;;;10.88;6.43;;;;;;;;;;5087365;28;20278;-64
2021/01/22 04:22:57;;;;;;;10.43;6.32;;;;;;;;;;5088451;28;20111;-65
2021/01/22 04:25:23;;;;;;;11.02;7.03;;;;;;;;;;5088755;28;20062;-64
2021/01/22 04:27:48;;;;;;;9.95;6.00;;;;;;;;;;5088374;28;20031;-64
2021/01/22 04:30:13;;;;;;;10.53;6.47;;;;;;;;;;5087422;28;20129;-64
2021/01/22 04:32:39;;;;;;;11.55;7.20;;;;;;;;;;5088545;28;20266;-64
2021/01/22 04:35:05;;;;;;;15.52;9.50;;;;;;;;;;5086015;28;20659;-64
2021/01/22 04:37:30;;;;;;;17.10;9.30;;;;;;;;;;5088032;28;20704;-65
2021/01/22 04:39:55;;;;;;;10.90;7.45;;;;;;;;;;5087612;28;20033;-64
2021/01/22 04:42:20;;;;;;;9.65;5.97;;;;;;;;;;5088279;28;20066;-64
2021/01/22 04:44:47;;;;;;;13.35;7.25;;;;;;;;;;5087194;28;20024;-65
2021/01/22 04:47:12;;;;;;;9.30;5.60;;;;;;;;;;5088207;28;20480;-64
2021/01/22 04:49:38;;;;;;;11.45;5.82;;;;;;;;;;5087761;28;20020;-64
2021/01/22 04:52:05;;;;;;;10.20;6.80;;;;;;;;;;5088059;28;20595;-63
2021/01/22 04:54:36;;;;;;;12.38;5.60;;;;;;;;;;5087955;28;20523;-64
2021/01/22 04:57:04;;;;;;;8.75;5.25;;;;;;;;;;5087235;28;20030;-64
2021/01/22 04:59:41;;;;;;;8.73;5.78;;;;;;;;;;5087804;28;20054;-64
2021/01/22 05:02:07;;;;;;;7.75;5.20;;;;;;;;;;5087840;28;20475;-64
2021/01/22 05:04:32;;;;;;;7.82;4.65;;;;;;;;;;5086197;28;20028;-64
2021/01/22 05:06:57;;;;;;;11.35;4.95;;;;;;;;;;5088102;28;20023;-64
2021/01/22 05:09:24;;;;;;;7.65;5.32;;;;;;;;;;5087814;28;20069;-64
2021/01/22 05:11:52;;;;;;;8.23;5.45;;;;;;;;;;5087228;28;20031;-64
2021/01/22 05:14:18;;;;;;;4.65;2.95;;;;;;;;;;5087580;28;20028;-65
2021/01/22 05:16:57;;;;;;;9.35;5.30;;;;;;;;;;5088381;28;20701;-65
2021/01/22 05:19:23;;;;;;;12.17;5.47;;;;;;;;;;5087354;28;20020;-64
2021/01/22 05:21:48;;;;;;;6.90;4.10;;;;;;;;;;5086716;28;20029;-65
2021/01/22 05:24:20;;;;;;;9.35;5.45;;;;;;;;;;5087811;28;20020;-64
2021/01/22 05:26:45;;;;;;;10.43;6.00;;;;;;;;;;5087565;28;20506;-64
2021/01/22 05:29:16;;;;;;;9.65;4.80;;;;;;;;;;5087278;28;20032;-65
2021/01/22 05:31:41;;;;;;;11.48;6.88;;;;;;;;;;5087831;28;20027;-66
2021/01/22 05:34:06;;;;;;;12.27;6.82;;;;;;;;;;5087492;28;20024;-65
2021/01/22 05:36:32;;;;;;;8.52;5.75;;;;;;;;;;5087934;28;20107;-66
2021/01/22 05:38:59;;;;;;;11.32;6.13;;;;;;;;;;5086279;28;20039;-66
2021/01/22 05:41:25;;;;;;;8.73;5.80;;;;;;;;;;5088178;28;20090;-64
2021/01/22 05:43:50;;;;;;;11.65;6.07;;;;;;;;;;5086786;28;20512;-66
2021/01/22 05:46:17;;;;;;;9.52;5.95;;;;;;;;;;5087560;28;20061;-64
2021/01/22 05:48:42;;;;;;;12.50;6.15;;;;;;;;;;5085481;28;20027;-65
2021/01/22 05:51:07;;;;;;;9.10;4.78;;;;;;;;;;5085972;28;20099;-64
2021/01/22 05:53:33;;;;;;;8.95;4.85;;;;;;;;;;5088213;28;20024;-65
2021/01/22 05:56:07;;;;;;;12.43;5.82;;;;;;;;;;5087229;28;20035;-65
2021/01/22 05:58:33;;;;;;;12.38;6.25;;;;;;;;;;5085389;28;20019;-64
2021/01/22 06:01:07;;;;;;;14.57;6.15;;;;;;;;;;5086915;28;20023;-64
2021/01/22 06:03:32;;;;;;;10.90;4.97;;;;;;;;;;5086585;28;20016;-64
2021/01/22 06:05:58;;;;;;;9.65;6.13;;;;;;;;;;5085826;28;20019;-64
2021/01/22 06:08:23;;;;;;;10.48;5.43;;;;;;;;;;5086792;28;20036;-64
2021/01/22 06:10:51;;;;;;;11.52;5.53;;;;;;;;;;5086333;28;20024;-64
2021/01/22 06:13:22;;;;;;;10.75;5.13;;;;;;;;;;5085880;28;22003;-64
2021/01/22 06:15:48;;;;;;;14.38;5.75;;;;;;;;;;5086582;28;20031;-64
2021/01/22 06:18:16;;;;;;;11.88;6.43;;;;;;;;;;5087119;28;20499;-64
2021/01/22 06:20:42;;;;;;;11.07;6.72;;;;;;;;;;5085186;28;20495;-65
2021/01/22 06:23:16;;;;;;;14.45;5.93;;;;;;;;;;5086947;28;20028;-63
2021/01/22 06:25:42;;;;;;;14.02;6.78;;;;;;;;;;5086097;28;20183;-65
2021/01/22 06:28:10;;;;;;;9.75;5.00;;;;;;;;;;5086445;28;20047;-64
2021/01/22 06:30:35;;;;;;;13.75;7.05;;;;;;;;;;5083613;28;20507;-65
2021/01/22 06:33:02;;;;;;;11.68;6.85;;;;;;;;;;5086951;28;20016;-65
2021/01/22 06:35:31;;;;;;;13.98;6.75;;;;;;;;;;5086153;28;20031;-64
2021/01/22 06:37:57;;;;;;;14.60;7.47;;;;;;;;;;5085427;28;20024;-64
2021/01/22 06:40:23;;;;;;;15.32;7.18;;;;;;;;;;5082441;28;20034;-64
2021/01/22 06:42:48;;;;;;;17.58;7.18;;;;;;;;;;5084436;28;20077;-64
2021/01/22 06:45:14;;;;;;;12.85;7.25;;;;;;;;;;5083496;28;20090;-64
2021/01/22 06:47:39;;;;;;;14.85;8.60;;;;;;;;;;5084911;28;20077;-64
2021/01/22 06:50:21;;;;;;;15.73;8.52;;;;;;;;;;5081910;28;20703;-64
2021/01/22 06:53:02;;;;;;;13.95;7.47;;;;;;;;;;5082537;28;20039;-64
2021/01/22 06:55:27;;;;;;;14.73;8.38;;;;;;;;;;5082567;28;20071;-64
2021/01/22 06:58:12;;;;;;;15.77;8.50;;;;;;;;;;5083291;28;20405;-63
2021/01/22 07:00:37;;;;;;;20.45;8.57;;;;;;;;;;5083389;28;20293;-64
2021/01/22 07:03:03;;;;;;;16.90;9.25;;;;;;;;;;5084668;28;20388;-64
2021/01/22 07:05:28;;;;;;;19.10;8.82;;;;;;;;;;5081119;28;20036;-65
2021/01/22 07:07:53;;;;;;;16.75;7.93;;;;;;;;;;5082909;28;20027;-66
2021/01/22 07:10:18;;;;;;;15.10;7.53;;;;;;;;;;5084867;28;20361;-66
2021/01/22 07:12:45;;;;;;;14.20;7.68;;;;;;;;;;5087554;28;20032;-66
2021/01/22 07:15:19;;;;;;;14.88;8.88;;;;;;;;;;5087230;28;20019;-66
2021/01/22 07:17:48;;;;;;;8.77;4.63;;;;;;;;;;5088420;28;20047;-62
2021/01/22 07:20:13;;;;;;;11.38;6.90;;;;;;;;;;5086433;28;20070;-64
2021/01/22 07:22:54;;;;;;;13.32;8.57;;;;;;;;;;5086207;28;20043;-63
2021/01/22 07:25:34;;;;;;;12.35;6.53;;;;;;;;;;5084706;28;20052;-65
2021/01/22 07:28:03;;;;;;;8.85;4.45;;;;;;;;;;5086347;28;20043;-67
2021/01/22 07:30:38;;;;;;;9.93;4.53;;;;;;;;;;5087927;28;20028;-65
2021/01/22 07:33:23;;;;;;;7.35;4.40;;;;;;;;;;5086137;28;20078;-65
2021/01/22 07:35:48;;;;;;;9.45;6.03;;;;;;;;;;5086086;28;20035;-65
2021/01/22 07:38:21;;;;;;;10.15;5.60;;;;;;;;;;5086606;28;20028;-66
2021/01/22 07:40:46;;;;;;;17.67;6.75;;;;;;;;;;5087338;28;20027;-65
2021/01/22 07:43:13;;;;;;;15.30;5.97;;;;;;;;;;5090724;28;20012;-65
2021/01/22 07:45:38;;;;;;;12.35;5.72;;;;;;;;;;5086487;28;20028;-65
2021/01/22 07:48:03;;;;;;;13.18;7.70;;;;;;;;;;5087685;28;20020;-66
2021/01/22 07:50:28;;;;;;;15.38;6.10;;;;;;;;;;5088057;28;20411;-64
2021/01/22 07:52:53;;;;;;;18.02;8.88;;;;;;;;;;5087185;28;20043;-64
2021/01/22 07:55:20;;;;;;;14.70;4.18;;;;;;;;;;5086781;28;20032;-65
2021/01/22 07:57:45;;;;;;;6.75;3.75;;;;;;;;;;5087879;28;20020;-65
2021/01/22 08:00:12;;;;;;;14.38;5.95;;;;;;;;;;5085815;28;20159;-65
2021/01/22 08:02:37;;;;;;;14.18;6.68;;;;;;;;;;5085071;28;20650;-65
2021/01/22 08:05:04;;;;;;;9.15;4.47;;;;;;;;;;5084404;28;20090;-65
2021/01/22 08:07:29;;;;;;;16.95;6.47;;;;;;;;;;5084981;28;20013;-65
2021/01/22 08:09:54;;;;;;;8.02;4.85;;;;;;;;;;5071951;28;20042;-65
2021/01/22 08:12:20;;;;;;;10.45;4.95;;;;;;;;;;5072644;28;20017;-65
2021/01/22 08:14:45;;;;;;;9.45;5.10;;;;;;;;;;5078690;28;20024;-65
2021/01/22 08:17:11;;;;;;;9.13;5.03;;;;;;;;;;5092164;28;20028;-65
2021/01/22 08:19:37;;;;;;;7.85;4.18;;;;;;;;;;5092725;28;20051;-65
2021/01/22 08:22:02;;;;;;;5.55;3.42;;;;;;;;;;5092590;28;20044;-65
2021/01/22 08:24:27;;;;;;;8.88;4.10;;;;;;;;;;5073267;28;20012;-65
2021/01/22 08:27:00;;;;;;;3.58;2.05;;;;;;;;;;5072880;28;20013;-65
2021/01/22 08:29:26;;;;;;;4.57;2.45;;;;;;;;;;5091380;28;20385;-65
2021/01/22 08:31:53;;;;;;;6.22;3.70;;;;;;;;;;5092587;28;20028;-66
2021/01/22 08:34:18;;;;;;;10.05;5.68;;;;;;;;;;5087624;28;20027;-66
2021/01/22 08:36:43;;;;;;;7.90;3.85;;;;;;;;;;5088062;28;20023;-65
2021/01/22 08:39:08;;;;;;;8.45;2.88;;;;;;;;;;5088419;28;20426;-65
2021/01/22 08:41:35;;;;;;;12.13;4.03;;;;;;;;;;5087601;28;20019;-64
2021/01/22 08:44:00;;;;;;;7.43;1.88;;;;;;;;;;5090970;28;20660;-63
2021/01/22 08:46:25;;;;;;;6.57;3.17;;;;;;;;;;5090427;28;20081;-63
2021/01/22 08:48:51;;;;;;;10.90;3.92;;;;;;;;;;5089727;28;20077;-63
2021/01/22 08:51:26;;;;;;;7.75;3.10;;;;;;;;;;5087964;28;20035;-64
2021/01/22 08:53:52;;;;;;;6.18;3.13;;;;;;;;;;5089656;28;20055;-64
2021/01/22 08:56:19;;;;;;;6.13;2.50;;;;;;;;;;5082270;28;20058;-64
2021/01/22 08:59:03;;;;;;;4.82;2.55;;;;;;;;;;5090115;28;20020;-64
2021/01/22 09:01:47;;;;;;;3.42;1.25;;;;;;;;;;5090489;28;20008;-64
2021/01/22 09:04:24;;;;;;;2.78;1.50;;;;;;;;;;5087482;28;20438;-64
2021/01/22 09:06:54;;;;;;;5.47;3.10;;;;;;;;;;5090988;28;20434;-63
2021/01/22 09:09:35;;;;;;;4.20;2.40;;;;;;;;;;5091843;28;20032;-64
2021/01/22 09:12:27;;;;;;;7.47;2.40;;;;;;;;;;5091270;28;20027;-64
2021/01/22 09:14:53;;;;;;;3.97;1.95;;;;;;;;;;5083003;28;20032;-63
2021/01/22 09:17:22;;;;;;;10.38;3.70;;;;;;;;;;5090371;28;20077;-64
2021/01/22 09:19:51;;;;;;;10.35;2.05;;;;;;;;;;5090696;28;20038;-64
2021/01/22 09:22:21;;;;;;;6.70;2.95;;;;;;;;;;5092042;28;20027;-64
2021/01/22 09:24:46;;;;;;;9.27;2.50;;;;;;;;;;5087816;28;20506;-64
2021/01/22 09:27:11;;;;;;;6.23;2.23;;;;;;;;;;5089090;28;20032;-65
2021/01/22 09:29:36;;;;;;;2.17;1.20;;;;;;;;;;5091097;28;20270;-65
2021/01/22 09:32:06;;;;;;;7.53;1.80;;;;;;;;;;5090144;28;20284;-65
2021/01/22 09:34:31;;;;;;;4.07;2.00;;;;;;;;;;5089395;28;20078;-65
2021/01/22 09:36:56;;;;;;;4.37;0.97;;;;;;;;;;5085491;28;20476;-65
2021/01/22 09:39:21;;;;;;;4.57;1.53;;;;;;;;;;5090368;28;20366;-65
2021/01/22 09:41:46;;;;;;;4.57;1.85;;;;;;;;;;5072791;28;20357;-65
2021/01/22 09:44:12;;;;;;;3.13;1.30;;;;;;;;;;5087602;28;20047;-65
2021/01/22 09:46:37;;;;;;;6.47;1.45;;;;;;;;;;5087676;28;20111;-65
2021/01/22 09:49:02;;;;;;;4.40;1.80;;;;;;;;;;5087892;28;20064;-65
2021/01/22 09:51:27;;;;;;;3.70;1.67;;;;;;;;;;5087684;28;20270;-65
2021/01/22 09:53:52;;;;;;;8.63;1.33;;;;;;;;;;5088647;28;20362;-65
2021/01/22 09:56:17;;;;;;;5.78;1.42;;;;;;;;;;5085312;28;20016;-65
2021/01/22 09:58:43;;;;;;;4.10;1.67;;;;;;;;;;5088084;28;20027;-65
2021/01/22 10:01:08;;;;;;;6.15;1.27;;;;;;;;;;5084893;28;20262;-65
2021/01/22 10:03:33;;;;;;;2.70;1.23;;;;;;;;;;5087880;28;20542;-65
2021/01/22 10:05:58;;;;;;;5.17;1.50;;;;;;;;;;5086070;28;20369;-64
2021/01/22 10:08:23;;;;;;;1.63;1.00;;;;;;;;;;5084307;28;20267;-64
2021/01/22 10:10:48;;;;;;;2.20;0.75;;;;;;;;;;5086201;28;20273;-64
2021/01/22 10:13:14;;;;;;;1.58;0.90;;;;;;;;;;5088420;28;20028;-64
2021/01/22 10:15:39;;;;;;;2.90;1.50;;;;;;;;;;5087162;28;20042;-65
2021/01/22 10:18:04;;;;;;;2.97;1.30;;;;;;;;;;5088645;28;20439;-65
2021/01/22 10:20:29;;;;;;;3.00;1.55;;;;;;;;;;5086725;28;20039;-65
2021/01/22 10:22:54;;;;;;;1.08;0.73;;;;;;;;;;5086971;28;20028;-65
2021/01/22 10:25:19;;;;;;;7.77;2.50;;;;;;;;;;5084431;28;20080;-65
2021/01/22 10:27:45;;;;;;;5.40;2.17;;;;;;;;;;5086315;28;20258;-65
2021/01/22 10:30:10;;;;;;;6.43;2.50;;;;;;;;;;5088535;28;20020;-65
2021/01/22 10:32:35;;;;;;;5.18;2.72;;;;;;;;;;5086792;28;20277;-65
2021/01/22 10:35:01;;;;;;;15.45;3.03;;;;;;;;;;5083955;28;20027;-65
2021/01/22 10:37:26;;;;;;;10.13;3.70;;;;;;;;;;5084485;28;20026;-65
2021/01/22 10:39:51;;;;;;;11.02;3.45;;;;;;;;;;5068988;28;20027;-65
2021/01/22 10:42:16;;;;;;;11.15;2.63;;;;;;;;;;5088754;28;20091;-65
2021/01/22 10:44:41;;;;;;;5.80;2.20;;;;;;;;;;5084725;28;20044;-65
2021/01/22 10:47:07;;;;;;;2.67;1.53;;;;;;;;;;5088717;28;20050;-65
2021/01/22 10:49:32;;;;;;;3.28;1.73;;;;;;;;;;5087241;28;20261;-65
2021/01/22 10:51:57;;;;;;;9.60;2.50;;;;;;;;;;5087684;28;20377;-65
2021/01/22 10:54:22;;;;;;;11.45;2.85;;;;;;;;;;5088189;28;20262;-65
2021/01/22 10:56:47;;;;;;;9.25;2.75;;;;;;;;;;5085237;28;20403;-65
2021/01/22 10:59:13;;;;;;;16.25;2.58;;;;;;;;;;5088302;28;20032;-65
2021/01/22 11:01:38;;;;;;;5.43;2.43;;;;;;;;;;5087735;28;20023;-64
2021/01/22 11:04:03;;;;;;;10.37;3.27;;;;;;;;;;5084561;28;20677;-65
2021/01/22 11:06:28;;;;;;;10.85;2.88;;;;;;;;;;5088308;28;20272;-64
2021/01/22 11:08:53;;;;;;;8.73;2.60;;;;;;;;;;5087850;28;20081;-64
2021/01/22 11:11:18;;;;;;;7.82;2.47;;;;;;;;;;5088680;28;20028;-64
2021/01/22 11:13:44;;;;;;;10.35;2.75;;;;;;;;;;5088349;28;20282;-64
2021/01/22 11:16:09;;;;;;;11.40;3.75;;;;;;;;;;5085083;28;20016;-64
2021/01/22 11:18:34;;;;;;;6.17;2.30;;;;;;;;;;5082128;28;20496;-64
2021/01/22 11:21:00;;;;;;;14.03;3.10;;;;;;;;;;5089716;28;20266;-64
2021/01/22 11:23:25;;;;;;;6.87;2.93;;;;;;;;;;5088135;28;20278;-64
2021/01/22 11:25:50;;;;;;;10.52;2.72;;;;;;;;;;5088901;28;20269;-65
2021/01/22 11:28:16;;;;;;;8.82;2.63;;;;;;;;;;5088228;28;20048;-64
2021/01/22 11:30:41;;;;;;;5.65;3.03;;;;;;;;;;5088141;28;20036;-64
2021/01/22 11:33:06;;;;;;;5.32;2.40;;;;;;;;;;5087574;28;20043;-64
2021/01/22 11:35:34;;;;;;;7.43;2.10;;;;;;;;;;5085968;28;20546;-64
2021/01/22 11:38:00;;;;;;;9.30;2.55;;;;;;;;;;5087579;28;20506;-64
2021/01/22 11:40:25;;;;;;;10.15;2.63;;;;;;;;;;5089611;28;20026;-64
2021/01/22 11:42:50;;;;;;;9.13;2.45;;;;;;;;;;5088569;28;20024;-64
2021/01/22 11:45:16;;;;;;;10.30;2.10;;;;;;;;;;5086702;28;20373;-65
2021/01/22 11:47:41;;;;;;;8.68;2.70;;;;;;;;;;5088410;28;20308;-64
2021/01/22 11:50:06;;;;;;;8.98;3.05;;;;;;;;;;5085663;28;20048;-64
2021/01/22 11:52:31;;;;;;;21.65;3.70;;;;;;;;;;5086034;28;20016;-64
2021/01/22 11:54:57;;;;;;;11.83;4.17;;;;;;;;;;5085091;28;20080;-64
2021/01/22 11:57:22;;;;;;;12.87;4.90;;;;;;;;;;5085522;28;20841;-64
2021/01/22 11:59:47;;;;;;;17.70;7.10;;;;;;;;;;5088899;28;20355;-64
2021/01/22 12:02:12;;;;;;;12.55;5.68;;;;;;;;;;5090863;28;20352;-66
2021/01/22 12:04:37;;;;;;;16.67;5.33;;;;;;;;;;5089172;28;20035;-64
2021/01/22 12:07:03;;;;;;;12.15;5.63;;;;;;;;;;5089778;28;20634;-65
2021/01/22 12:09:28;;;;;;;16.33;6.20;;;;;;;;;;5090250;28;20107;-64
2021/01/22 12:11:53;;;;;;;18.07;6.03;;;;;;;;;;5091254;28;20031;-66
2021/01/22 12:14:18;;;;;;;11.18;6.05;;;;;;;;;;5089474;28;20277;-64
2021/01/22 12:16:44;;;;;;;14.18;6.50;;;;;;;;;;5089611;28;20043;-64
2021/01/22 12:19:09;;;;;;;7.57;4.40;;;;;;;;;;5090465;28;20020;-64
2021/01/22 12:21:35;;;;;;;12.13;5.63;;;;;;;;;;5088036;28;20020;-64
2021/01/22 12:24:00;;;;;;;18.90;7.72;;;;;;;;;;5087956;28;20276;-64
2021/01/22 12:26:25;;;;;;;15.20;5.47;;;;;;;;;;5088624;28;20020;-64
2021/01/22 12:28:50;;;;;;;13.05;6.20;;;;;;;;;;5089182;28;20016;-64
2021/01/22 12:31:15;;;;;;;19.42;5.05;;;;;;;;;;5089459;28;20027;-64
2021/01/22 12:33:41;;;;;;;11.63;4.40;;;;;;;;;;5085945;28;20281;-64
2021/01/22 12:36:06;;;;;;;8.25;2.83;;;;;;;;;;5087993;28;20032;-64
2021/01/22 12:38:31;;;;;;;9.30;3.17;;;;;;;;;;5087740;28;20012;-64
2021/01/22 12:40:57;;;;;;;7.40;3.30;;;;;;;;;;5089182;28;20035;-64
2021/01/22 12:43:22;;;;;;;7.43;3.17;;;;;;;;;;5088988;28;20020;-64
2021/01/22 12:45:47;;;;;;;17.52;4.78;;;;;;;;;;5088220;28;20110;-64
2021/01/22 12:48:13;;;;;;;6.53;3.13;;;;;;;;;;5088713;28;20024;-64
2021/01/22 12:50:38;;;;;;;13.25;4.28;;;;;;;;;;5089704;28;20077;-64
2021/01/22 12:53:04;;;;;;;14.60;4.78;;;;;;;;;;5088391;28;20162;-64
2021/01/22 12:55:29;;;;;;;15.25;3.92;;;;;;;;;;5089530;28;20028;-65
2021/01/22 12:57:54;;;;;;;17.58;4.88;;;;;;;;;;5090372;28;20019;-64
2021/01/22 13:00:20;;;;;;;7.47;3.45;;;;;;;;;;5089533;28;20027;-64
2021/01/22 13:02:45;;;;;;;13.35;3.85;;;;;;;;;;5091512;28;20026;-64
2021/01/22 13:05:13;;;;;;;15.30;5.82;;;;;;;;;;5091900;28;20020;-65
2021/01/22 13:07:39;;;;;;;8.07;3.40;;;;;;;;;;5089567;28;20692;-65
2021/01/22 13:10:05;;;;;;;6.45;3.10;;;;;;;;;;5092171;28;20028;-67
2021/01/22 13:12:30;;;;;;;16.70;4.63;;;;;;;;;;5091850;28;20024;-64
2021/01/22 13:14:55;;;;;;;12.23;5.43;;;;;;;;;;5090220;28;20082;-62
2021/01/22 13:17:21;;;;;;;11.87;4.13;;;;;;;;;;5088594;28;20636;-64
2021/01/22 13:19:46;;;;;;;9.32;4.45;;;;;;;;;;5089152;28;20308;-64
2021/01/22 13:22:11;;;;;;;11.90;4.53;;;;;;;;;;5089462;28;20031;-65
2021/01/22 13:24:36;;;;;;;9.90;3.58;;;;;;;;;;5091665;28;20291;-65
2021/01/22 13:27:01;;;;;;;9.53;3.87;;;;;;;;;;5080206;28;20078;-65
2021/01/22 13:29:26;;;;;;;12.67;4.10;;;;;;;;;;5097159;28;20769;-63
2021/01/22 13:31:52;;;;;;;8.40;3.47;;;;;;;;;;5098257;28;20366;-65
2021/01/22 13:34:17;;;;;;;8.55;4.53;;;;;;;;;;5087928;28;20769;-65
2021/01/22 13:36:42;;;;;;;14.88;4.70;;;;;;;;;;5082418;28;20070;-64
2021/01/22 13:39:07;;;;;;;13.45;4.13;;;;;;;;;;5084433;28;20114;-65
2021/01/22 13:41:32;;;;;;;13.95;4.03;;;;;;;;;;5091838;28;20024;-65
2021/01/22 13:44:00;;;;;;;9.98;3.55;;;;;;;;;;5088659;28;20020;-65
2021/01/22 13:46:25;;;;;;;7.63;3.45;;;;;;;;;;5090102;28;20087;-66
2021/01/22 13:48:50;;;;;;;7.28;3.20;;;;;;;;;;5091046;28;20095;-63
2021/01/22 13:51:16;;;;;;;8.68;4.03;;;;;;;;;;5091288;28;20027;-65
2021/01/22 13:53:42;;;;;;;6.77;2.50;;;;;;;;;;5089999;28;20020;-65
2021/01/22 13:56:07;;;;;;;6.20;2.78;;;;;;;;;;5089192;28;20759;-64
2021/01/22 13:58:32;;;;;;;6.93;3.13;;;;;;;;;;5083838;28;20103;-65
2021/01/22 14:00:57;;;;;;;5.43;2.53;;;;;;;;;;5084919;28;20274;-65
2021/01/22 14:03:23;;;;;;;8.85;3.42;;;;;;;;;;5090205;28;20357;-64
2021/01/22 14:05:48;;;;;;;11.30;3.87;;;;;;;;;;5088932;28;20020;-64
2021/01/22 14:08:13;;;;;;;8.63;3.40;;;;;;;;;;5086666;28;20270;-64
2021/01/22 14:10:38;;;;;;;5.27;2.93;;;;;;;;;;5086299;28;20288;-65
2021/01/22 14:13:03;;;;;;;7.95;3.88;;;;;;;;;;5085537;28;20285;-64
2021/01/22 14:15:28;;;;;;;11.63;2.80;;;;;;;;;;5089053;28;20269;-65
2021/01/22 14:17:53;;;;;;;7.90;2.87;;;;;;;;;;5088800;28;20266;-63
2021/01/22 14:20:19;;;;;;;13.38;4.80;;;;;;;;;;5083433;28;20278;-65
2021/01/22 14:22:44;;;;;;;8.68;4.22;;;;;;;;;;5088866;28;20262;-63
2021/01/22 14:25:09;;;;;;;11.07;3.55;;;;;;;;;;5088516;28;20494;-65
2021/01/22 14:27:34;;;;;;;11.80;4.15;;;;;;;;;;5089892;28;20031;-65
2021/01/22 14:29:59;;;;;;;19.30;5.10;;;;;;;;;;5087019;28;20036;-64
2021/01/22 14:32:25;;;;;;;24.60;7.03;;;;;;;;;;5088834;28;20304;-65
2021/01/22 14:34:50;;;;;;;24.33;5.87;;;;;;;;;;5088060;28;20270;-65